Time;durP1;ratioP1;P1;durP2;ratioP2;P2;SDS_P1;SDS_P2;PMS_P1;PMS_P2;Temp;Humidity;BMP_temperature;BMP_pressure;BME280_temperature;BME280_humidity;BME280_pressure;Samples;Min_cycle;Max_cycle;Signal;HPM_P1;HPM_P2
2022/01/15 00:01:11;;;;;;;18.17;2.85;;;;;;;-0.73;100.00;99473.53;4356378;32;20062;-76
2022/01/15 00:03:38;;;;;;;9.38;3.37;;;;;;;-0.50;100.00;99507.22;4354938;32;20372;-76
2022/01/15 00:06:04;;;;;;;13.57;2.85;;;;;;;-0.54;100.00;99513.87;4356245;32;20095;-76
2022/01/15 00:08:31;;;;;;;25.40;3.97;;;;;;;-0.53;100.00;99520.78;4353408;32;20196;-76
2022/01/15 00:10:57;;;;;;;19.27;3.62;;;;;;;-0.55;100.00;99525.44;4356289;32;20115;-76
2022/01/15 00:13:28;;;;;;;31.67;3.75;;;;;;;-0.59;100.00;99529.37;4355875;32;20111;-76
2022/01/15 00:16:10;;;;;;;25.45;3.75;;;;;;;-0.57;100.00;99522.13;4353382;33;20410;-76
2022/01/15 00:21:11;;;;;;;25.20;4.20;;;;;;;-0.90;100.00;99487.72;4355865;32;20040;-76
2022/01/15 00:23:38;;;;;;;19.33;3.12;;;;;;;-1.10;100.00;99458.97;4355961;32;20089;-76
2022/01/15 00:26:04;;;;;;;26.15;3.35;;;;;;;-0.70;100.00;99521.78;4354696;32;20048;-78
2022/01/15 00:28:31;;;;;;;16.17;3.45;;;;;;;-0.84;100.00;99505.59;4357012;32;20044;-75
2022/01/15 00:30:58;;;;;;;12.95;2.87;;;;;;;-0.97;100.00;99484.91;4360485;32;20138;-77
2022/01/15 00:33:25;;;;;;;23.95;3.20;;;;;;;-1.12;100.00;99466.25;4357386;32;20077;-76
2022/01/15 00:35:52;;;;;;;24.85;3.35;;;;;;;-1.02;100.00;99486.38;4359126;32;20028;-76
2022/01/15 00:38:19;;;;;;;19.42;3.42;;;;;;;-1.20;100.00;99462.75;4357981;32;20036;-76
2022/01/15 00:40:46;;;;;;;18.00;3.20;;;;;;;-1.02;100.00;99489.03;4356902;32;20051;-76
2022/01/15 00:43:12;;;;;;;18.00;3.65;;;;;;;-0.79;100.00;99519.13;4343075;32;20159;-76
2022/01/15 00:45:39;;;;;;;17.17;2.67;;;;;;;-0.96;100.00;99502.44;4356658;32;20414;-76
2022/01/15 00:48:05;;;;;;;15.73;2.55;;;;;;;-0.93;100.00;99506.56;4355582;32;20061;-75
2022/01/15 00:50:32;;;;;;;20.02;3.00;;;;;;;-0.97;100.00;99508.72;4353239;32;20361;-77
2022/01/15 00:52:58;;;;;;;11.75;2.70;;;;;;;-1.04;100.00;99504.22;4355980;32;20059;-75
2022/01/15 00:55:25;;;;;;;26.52;5.32;;;;;;;-1.03;100.00;99495.31;4352910;32;20036;-76
2022/01/15 00:57:52;;;;;;;19.60;3.10;;;;;;;-0.96;100.00;99517.47;4349585;32;20024;-75
2022/01/15 01:00:27;;;;;;;20.60;3.03;;;;;;;-0.99;100.00;99528.34;4360028;32;20044;-76
2022/01/15 01:02:54;;;;;;;20.73;2.40;;;;;;;-1.26;100.00;99480.09;4363815;32;20481;-76
2022/01/15 01:05:21;;;;;;;17.23;2.58;;;;;;;-1.01;100.00;99535.63;4361393;32;20124;-76
2022/01/15 01:07:49;;;;;;;9.48;3.40;;;;;;;-1.11;100.00;99515.44;4361102;32;20345;-76
2022/01/15 01:23:36;;;;;;;14.10;3.30;;;;;;;-1.21;100.00;99509.50;4358024;32;20039;-76
2022/01/15 01:26:11;;;;;;;16.80;2.97;;;;;;;-1.36;100.00;99484.69;4348865;32;20349;-76
2022/01/15 01:28:43;;;;;;;19.65;3.35;;;;;;;-1.10;100.00;99527.69;4350264;32;20348;-76
2022/01/15 01:33:43;;;;;;;16.05;3.35;;;;;;;-1.18;100.00;99519.75;4362261;32;20065;-78
2022/01/15 01:38:49;;;;;;;15.50;2.62;;;;;;;-1.22;100.00;99528.97;4357419;32;20036;-76
2022/01/15 01:41:18;;;;;;;22.27;3.15;;;;;;;-1.22;100.00;99510.47;4342382;32;20061;-76
2022/01/15 01:43:55;;;;;;;13.02;2.80;;;;;;;-1.20;100.00;99523.53;4354533;32;20058;-76
2022/01/15 01:48:53;;;;;;;11.95;3.12;;;;;;;-1.16;100.00;99517.75;4354697;32;20036;-76
2022/01/15 01:51:34;;;;;;;21.50;3.15;;;;;;;-1.23;100.00;99511.44;4354377;32;20400;-76
2022/01/15 01:54:05;;;;;;;20.10;3.35;;;;;;;-1.27;100.00;99515.41;4353889;32;20055;-76
2022/01/15 01:56:32;;;;;;;17.50;2.85;;;;;;;-1.30;100.00;99515.75;4341062;33;20062;-75
2022/01/15 01:58:59;;;;;;;19.10;2.80;;;;;;;-1.55;100.00;99469.94;4355580;32;20040;-76
2022/01/15 02:01:26;;;;;;;17.92;3.20;;;;;;;-1.25;100.00;99517.91;4357030;32;20061;-76
2022/01/15 02:03:53;;;;;;;19.42;3.00;;;;;;;-1.34;100.00;99504.69;4356570;32;20364;-75
2022/01/15 02:06:20;;;;;;;21.05;3.17;;;;;;;-1.58;100.00;99465.81;4369058;32;20049;-75
2022/01/15 02:08:48;;;;;;;11.12;2.92;;;;;;;-1.36;100.00;99509.28;4363344;32;20040;-75
2022/01/15 02:11:15;;;;;;;24.83;3.50;;;;;;;-1.34;100.00;99515.25;4354214;33;20483;-75
2022/01/15 02:13:45;;;;;;;23.15;2.85;;;;;;;-1.36;100.00;99503.16;4362764;32;20443;-75
2022/01/15 02:16:13;;;;;;;21.55;3.25;;;;;;;-1.40;100.00;99510.59;4369117;32;20345;-75
2022/01/15 02:18:40;;;;;;;17.67;2.92;;;;;;;-1.51;100.00;99497.69;4370186;32;20035;-75
2022/01/15 02:23:44;;;;;;;14.75;3.05;;;;;;;-1.75;100.00;99450.91;4360750;32;20031;-75
2022/01/15 02:26:23;;;;;;;16.27;3.15;;;;;;;-1.49;100.00;99517.66;4353072;33;20066;-75
2022/01/15 02:28:58;;;;;;;13.30;2.53;;;;;;;-1.84;100.00;99477.25;4357007;32;20085;-75
2022/01/15 02:31:27;;;;;;;9.25;2.33;;;;;;;-1.63;100.00;99518.25;4354113;32;20066;-75
2022/01/15 02:33:55;;;;;;;14.30;3.20;;;;;;;-1.62;100.00;99522.56;4369274;32;20040;-74
2022/01/15 02:36:24;;;;;;;12.65;2.72;;;;;;;-1.61;100.00;99518.94;4368261;32;20040;-75
2022/01/15 02:38:52;;;;;;;14.98;2.15;;;;;;;-1.90;100.00;99480.53;4364187;32;20044;-76
2022/01/15 02:41:31;;;;;;;16.73;2.45;;;;;;;-1.62;100.00;99522.56;4351276;33;20035;-75
2022/01/15 02:44:01;;;;;;;20.40;3.10;;;;;;;-1.60;100.00;99515.31;4365230;32;20073;-75
2022/01/15 02:48:56;;;;;;;17.30;3.10;;;;;;;-1.84;100.00;99501.00;4366943;32;20163;-77
2022/01/15 02:51:28;;;;;;;18.42;2.97;;;;;;;-1.76;100.00;99531.91;4368466;32;20051;-75
2022/01/15 02:53:55;;;;;;;14.30;2.53;;;;;;;-1.63;100.00;99526.19;4355036;32;20100;-75
2022/01/15 02:56:27;;;;;;;11.25;2.47;;;;;;;-1.78;100.00;99498.75;4340406;33;20060;-75
2022/01/15 02:58:54;;;;;;;18.95;2.65;;;;;;;-1.68;100.00;99513.44;4341375;33;20338;-75
2022/01/15 03:01:22;;;;;;;14.00;2.97;;;;;;;-1.64;100.00;99519.25;4341696;33;20453;-75
2022/01/15 03:03:48;;;;;;;15.82;3.30;;;;;;;-1.91;100.00;99476.25;4362435;32;20429;-75
2022/01/15 03:06:17;;;;;;;11.90;3.15;;;;;;;-1.80;100.00;99509.47;4371072;32;20160;-75
2022/01/15 03:08:45;;;;;;;20.70;2.53;;;;;;;-1.72;100.00;99519.22;4363275;32;20044;-75
2022/01/15 03:11:12;;;;;;;14.87;3.30;;;;;;;-1.67;100.00;99514.28;4359176;32;20085;-75
2022/01/15 03:13:41;;;;;;;11.52;3.55;;;;;;;-1.73;100.00;99522.84;4359075;32;20491;-74
2022/01/15 03:16:09;;;;;;;23.45;3.28;;;;;;;-1.64;100.00;99519.25;4357822;32;20481;-75
2022/01/15 03:18:36;;;;;;;11.82;3.33;;;;;;;-1.65;100.00;99533.44;4357072;32;20035;-75
2022/01/15 03:21:03;;;;;;;17.48;3.70;;;;;;;-1.96;100.00;99483.81;4356507;32;20455;-75
2022/01/15 03:23:30;;;;;;;12.50;3.37;;;;;;;-1.70;100.00;99530.47;4342272;33;20066;-74
2022/01/15 03:25:56;;;;;;;20.42;4.03;;;;;;;-1.86;100.00;99532.03;4356273;32;20376;-74
2022/01/15 03:28:23;;;;;;;23.52;3.62;;;;;;;-1.77;100.00;99532.91;4368472;32;20376;-74
2022/01/15 03:30:50;;;;;;;10.18;2.80;;;;;;;-2.18;100.00;99464.06;4363331;32;20043;-74
2022/01/15 03:33:17;;;;;;;19.35;3.67;;;;;;;-1.93;100.00;99503.75;4371675;32;20036;-74
2022/01/15 03:35:45;;;;;;;10.25;3.37;;;;;;;-2.33;100.00;99434.81;4357017;32;20079;-74
2022/01/15 03:38:11;;;;;;;19.85;3.67;;;;;;;-1.97;100.00;99503.25;4371340;32;20043;-74
2022/01/15 03:40:38;;;;;;;23.55;4.40;;;;;;;-1.85;100.00;99515.22;4372525;32;20035;-73
2022/01/15 03:43:05;;;;;;;29.37;5.78;;;;;;;-1.90;100.00;99519.28;4372280;32;20537;-74
2022/01/15 03:45:33;;;;;;;27.48;4.75;;;;;;;-1.91;100.00;99518.47;4357032;32;20039;-75
2022/01/15 03:47:59;;;;;;;25.27;3.90;;;;;;;-1.90;100.00;99519.28;4371763;32;20109;-76
2022/01/15 03:50:27;;;;;;;18.67;4.68;;;;;;;-2.21;100.00;99469.66;4371528;32;20035;-76
2022/01/15 03:52:55;;;;;;;22.17;3.62;;;;;;;-1.98;100.00;99527.97;4361252;32;20047;-75
2022/01/15 03:55:22;;;;;;;20.30;3.20;;;;;;;-1.89;100.00;99531.50;4368191;32;20466;-75
2022/01/15 03:57:49;;;;;;;19.73;3.60;;;;;;;-2.20;100.00;99498.53;4363455;32;20035;-74
2022/01/15 04:00:24;;;;;;;20.02;3.53;;;;;;;-1.93;100.00;99541.56;4345589;32;20073;-74
2022/01/15 04:02:53;;;;;;;20.60;2.72;;;;;;;-2.18;100.00;99500.19;4372083;32;20065;-75
2022/01/15 04:05:20;;;;;;;13.35;3.33;;;;;;;-1.94;100.00;99539.91;4370037;32;20043;-76
2022/01/15 04:07:48;;;;;;;21.80;3.35;;;;;;;-1.93;100.00;99546.00;4369422;32;20035;-75
2022/01/15 04:10:16;;;;;;;9.43;2.58;;;;;;;-2.07;100.00;99528.94;4371708;32;20039;-74
2022/01/15 04:12:43;;;;;;;8.88;2.75;;;;;;;-1.98;100.00;99543.00;4357325;32;20150;-74
2022/01/15 04:15:13;;;;;;;22.70;4.72;;;;;;;-2.11;100.00;99517.03;4358400;32;20368;-74
2022/01/15 04:17:46;;;;;;;18.73;3.58;;;;;;;-1.99;100.00;99550.09;4369544;32;20039;-75
2022/01/15 04:20:14;;;;;;;13.35;2.72;;;;;;;-1.98;100.00;99543.81;4362237;32;20101;-75
2022/01/15 04:22:40;;;;;;;18.95;3.55;;;;;;;-2.02;100.00;99543.31;4355525;32;20025;-75
2022/01/15 04:25:07;;;;;;;14.35;3.00;;;;;;;-2.08;100.00;99543.13;4355802;32;20039;-74
2022/01/15 04:27:34;;;;;;;27.92;5.03;;;;;;;-2.35;100.00;99513.25;4353266;32;20185;-76
2022/01/15 04:30:03;;;;;;;21.27;2.80;;;;;;;-2.15;100.00;99547.34;4357196;32;20073;-75
2022/01/15 04:32:30;;;;;;;25.10;4.22;;;;;;;-2.17;100.00;99544.03;4356670;32;20377;-74
2022/01/15 04:34:58;;;;;;;22.92;3.60;;;;;;;-2.10;100.00;99563.56;4366300;32;20047;-74
2022/01/15 04:37:34;;;;;;;28.48;3.72;;;;;;;-2.09;100.00;99567.84;4369590;32;20196;-77
2022/01/15 04:40:01;;;;;;;22.75;3.25;;;;;;;-2.33;100.00;99524.50;4370351;32;20047;-74
2022/01/15 04:42:29;;;;;;;17.42;3.40;;;;;;;-2.21;100.00;99559.34;4356005;32;20073;-75
2022/01/15 04:44:56;;;;;;;16.87;3.58;;;;;;;-2.19;100.00;99567.94;4360508;32;20051;-74
2022/01/15 04:47:24;;;;;;;23.15;3.08;;;;;;;-2.29;100.00;99562.75;4355757;32;20052;-75
2022/01/15 04:49:54;;;;;;;11.90;2.70;;;;;;;-2.30;100.00;99568.19;4370666;32;20073;-74
2022/01/15 04:52:23;;;;;;;22.27;4.50;;;;;;;-2.32;100.00;99573.63;4355648;32;20028;-74
2022/01/15 04:54:51;;;;;;;19.23;3.55;;;;;;;-2.56;100.00;99524.97;4370319;32;20065;-74
2022/01/15 04:57:18;;;;;;;26.80;3.47;;;;;;;-2.27;100.00;99571.34;4368672;32;20044;-76
2022/01/15 04:59:44;;;;;;;25.60;3.58;;;;;;;-2.35;100.00;99558.09;4355836;32;20058;-74
2022/01/15 05:02:11;;;;;;;12.80;3.00;;;;;;;-2.32;100.00;99565.69;4369736;32;20848;-73
2022/01/15 05:04:37;;;;;;;23.60;3.28;;;;;;;-2.32;100.00;99554.34;4370825;32;20360;-73
2022/01/15 05:07:04;;;;;;;11.88;3.30;;;;;;;-2.76;100.00;99486.56;4366547;32;20054;-76
2022/01/15 05:09:31;;;;;;;24.45;3.85;;;;;;;-2.40;100.00;99544.53;4364594;32;20062;-76
2022/01/15 05:12:39;;;;;;;24.83;4.70;;;;;;;-2.36;100.00;99559.09;4368241;32;20055;-74
2022/01/15 05:14:50;;;;;;;15.73;3.03;;;;;;;-2.64;100.00;99522.25;4358053;32;20392;-73
2022/01/15 05:17:17;;;;;;;24.40;3.97;;;;;;;-2.37;100.00;99565.34;4354869;32;20105;-77
2022/01/15 05:19:43;;;;;;;19.75;2.87;;;;;;;-2.34;100.00;99561.56;4355674;32;20054;-73
2022/01/15 05:22:10;;;;;;;13.43;3.80;;;;;;;-2.63;100.00;99529.22;4368668;32;20043;-73
2022/01/15 05:24:37;;;;;;;28.50;4.62;;;;;;;-2.83;100.00;99481.09;4369630;32;20087;-73
2022/01/15 05:27:03;;;;;;;9.07;3.50;;;;;;;-2.48;100.00;99557.66;4355150;32;20050;-73
2022/01/15 05:29:31;;;;;;;18.42;3.92;;;;;;;-2.62;100.00;99530.03;4360021;32;20065;-75
2022/01/15 05:31:58;;;;;;;26.42;3.97;;;;;;;-2.52;100.00;99564.22;4367686;32;20097;-73
2022/01/15 05:34:24;;;;;;;18.80;4.05;;;;;;;-2.54;100.00;99563.53;4368799;32;20064;-73
2022/01/15 05:36:51;;;;;;;15.35;4.20;;;;;;;-2.50;100.00;99571.00;4363277;32;20040;-74
2022/01/15 05:39:17;;;;;;;14.25;3.97;;;;;;;-2.50;100.00;99570.19;4360892;32;20483;-73
2022/01/15 05:41:44;;;;;;;22.83;4.32;;;;;;;-2.51;100.00;99573.78;4355761;32;20035;-75
2022/01/15 05:44:11;;;;;;;16.27;3.00;;;;;;;-2.53;100.00;99575.75;4361684;32;20150;-73
2022/01/15 05:46:37;;;;;;;25.77;4.55;;;;;;;-2.54;100.00;99582.00;4358890;32;20043;-74
2022/01/15 05:49:04;;;;;;;17.42;4.57;;;;;;;-2.59;100.00;99579.81;4348344;32;20467;-73
2022/01/15 05:51:31;;;;;;;20.95;3.45;;;;;;;-2.54;100.00;99585.47;4358493;32;20402;-73
2022/01/15 05:54:03;;;;;;;10.90;3.85;;;;;;;-2.63;100.00;99587.22;4360291;32;20055;-73
2022/01/15 05:56:30;;;;;;;25.85;4.37;;;;;;;-2.52;100.00;99594.06;4348972;32;20035;-74
2022/01/15 05:58:57;;;;;;;25.48;3.67;;;;;;;-2.85;100.00;99551.56;4354218;32;20079;-73
2022/01/15 06:01:24;;;;;;;18.48;4.32;;;;;;;-2.59;100.00;99588.53;4359214;32;20040;-73
2022/01/15 06:03:50;;;;;;;17.52;3.92;;;;;;;-2.72;100.00;99572.28;4345610;32;20056;-74
2022/01/15 06:06:17;;;;;;;27.20;4.53;;;;;;;-2.88;100.00;99561.59;4345328;33;20059;-74
2022/01/15 06:08:43;;;;;;;20.80;4.03;;;;;;;-2.62;100.00;99609.94;4346128;32;20373;-73
2022/01/15 06:11:11;;;;;;;23.85;4.35;;;;;;;-2.86;100.00;99560.44;4353733;33;20062;-73
2022/01/15 06:13:38;;;;;;;25.45;4.18;;;;;;;-2.59;100.00;99604.37;4340507;33;20028;-75
2022/01/15 06:16:04;;;;;;;17.17;4.05;;;;;;;-3.12;100.00;99518.22;4343565;32;20407;-73
2022/01/15 06:18:31;;;;;;;33.42;4.68;;;;;;;-2.58;100.00;99605.22;4368783;32;20031;-73
2022/01/15 06:20:58;;;;;;;23.60;4.72;;;;;;;-2.65;100.00;99615.53;4369660;32;20118;-73
2022/01/15 06:23:25;;;;;;;20.50;4.35;;;;;;;-2.65;100.00;99610.28;4360218;32;20062;-72
2022/01/15 06:25:51;;;;;;;17.25;3.08;;;;;;;-3.01;100.00;99546.97;4362569;32;20039;-75
2022/01/15 06:28:18;;;;;;;24.17;4.00;;;;;;;-2.63;100.00;99608.31;4362560;32;20077;-73
2022/01/15 06:30:45;;;;;;;16.95;3.70;;;;;;;-2.81;100.00;99573.19;4370091;32;20323;-72
2022/01/15 06:33:11;;;;;;;24.75;4.47;;;;;;;-2.56;100.00;99625.16;4372615;32;20036;-74
2022/01/15 06:35:38;;;;;;;25.42;3.75;;;;;;;-2.62;100.00;99623.12;4372436;32;20044;-73
2022/01/15 06:38:04;;;;;;;20.08;5.05;;;;;;;-2.60;100.00;99631.72;4356740;32;20036;-75
2022/01/15 06:40:31;;;;;;;21.75;4.45;;;;;;;-2.59;100.00;99633.38;4371069;32;20837;-72
2022/01/15 06:43:00;;;;;;;14.35;3.75;;;;;;;-2.58;100.00;99637.69;4372795;32;20036;-73
2022/01/15 06:45:30;;;;;;;14.45;3.72;;;;;;;-2.61;100.00;99643.25;4371072;32;20047;-73
2022/01/15 06:47:57;;;;;;;15.73;3.90;;;;;;;-2.56;100.00;99635.72;4360131;32;20085;-76
2022/01/15 06:50:25;;;;;;;28.42;4.47;;;;;;;-2.85;100.00;99608.75;4364088;32;20063;-74
2022/01/15 06:52:52;;;;;;;20.77;5.25;;;;;;;-2.64;100.00;99638.28;4358620;32;20047;-72
2022/01/15 06:55:19;;;;;;;19.02;4.25;;;;;;;-2.67;100.00;99643.84;4372897;32;20386;-72
2022/01/15 06:57:46;;;;;;;12.82;4.18;;;;;;;-2.81;100.00;99620.63;4371109;32;20116;-72
2022/01/15 07:00:13;;;;;;;19.10;4.53;;;;;;;-2.64;100.00;99654.09;4370203;32;20036;-74
2022/01/15 07:02:41;;;;;;;18.08;4.53;;;;;;;-2.63;100.00;99657.56;4371513;32;20082;-73
2022/01/15 07:05:09;;;;;;;25.15;4.62;;;;;;;-2.92;100.00;99609.34;4366246;32;20085;-77
2022/01/15 07:07:40;;;;;;;20.40;4.93;;;;;;;-2.92;100.00;99608.47;4351857;32;20032;-73
2022/01/15 07:10:08;;;;;;;15.50;3.97;;;;;;;-2.62;100.00;99652.13;4348371;32;20028;-74
2022/01/15 07:12:35;;;;;;;14.02;4.40;;;;;;;-2.65;100.00;99641.91;4356604;32;20070;-72
2022/01/15 07:15:02;;;;;;;30.75;4.12;;;;;;;-2.58;100.00;99664.03;4355383;32;20525;-74
2022/01/15 07:17:29;;;;;;;14.10;4.72;;;;;;;-2.67;100.00;99643.84;4356389;32;20039;-72
2022/01/15 07:19:55;;;;;;;25.08;5.22;;;;;;;-2.76;100.00;99636.81;4370349;32;20051;-73
2022/01/15 07:22:22;;;;;;;29.20;4.18;;;;;;;-2.71;100.00;99668.84;4368528;32;20411;-76
2022/01/15 07:24:48;;;;;;;20.80;5.35;;;;;;;-2.60;100.00;99671.28;4355230;32;20364;-72
2022/01/15 07:27:15;;;;;;;22.92;4.40;;;;;;;-2.65;100.00;99667.41;4370437;32;20400;-73
2022/01/15 07:29:41;;;;;;;22.65;4.10;;;;;;;-2.68;100.00;99668.56;4370705;32;20398;-72
2022/01/15 07:32:08;;;;;;;11.05;3.70;;;;;;;-2.65;100.00;99676.19;4370123;32;20381;-73
2022/01/15 07:34:35;;;;;;;16.65;3.40;;;;;;;-2.68;100.00;99673.84;4355744;32;20044;-73
2022/01/15 07:37:01;;;;;;;29.25;4.75;;;;;;;-2.68;100.00;99684.38;4355587;32;20039;-73
2022/01/15 07:39:28;;;;;;;22.62;3.85;;;;;;;-2.66;100.00;99682.41;4357767;32;20032;-73
2022/01/15 07:41:56;;;;;;;20.48;4.28;;;;;;;-2.64;100.00;99688.37;4370793;32;20043;-73
2022/01/15 07:44:22;;;;;;;30.12;3.72;;;;;;;-2.82;100.00;99650.63;4371911;32;20077;-74
2022/01/15 07:46:49;;;;;;;23.70;3.92;;;;;;;-2.88;100.00;99645.94;4371200;32;20368;-77
2022/01/15 07:49:16;;;;;;;22.05;4.32;;;;;;;-2.56;100.00;99688.44;4369528;32;20061;-73
2022/01/15 07:51:43;;;;;;;19.73;4.22;;;;;;;-2.63;100.00;99670.75;4369411;32;20205;-73
2022/01/15 07:54:09;;;;;;;29.73;4.57;;;;;;;-2.78;100.00;99641.41;4359139;32;20044;-73
2022/01/15 07:56:36;;;;;;;25.33;5.28;;;;;;;-2.52;100.00;99677.59;4355018;32;20044;-73
2022/01/15 07:59:03;;;;;;;25.92;3.78;;;;;;;-2.47;100.00;99675.34;4355763;32;20069;-75
2022/01/15 08:01:29;;;;;;;26.05;5.15;;;;;;;-2.51;100.00;99689.81;4354202;32;20098;-73
2022/01/15 08:03:56;;;;;;;25.30;4.97;;;;;;;-2.65;100.00;99663.00;4353802;32;20358;-73
2022/01/15 08:06:23;;;;;;;12.65;4.03;;;;;;;-2.72;100.00;99651.37;4350235;32;20039;-73
2022/01/15 08:08:51;;;;;;;12.35;4.65;;;;;;;-2.47;100.00;99696.44;4342216;32;20430;-73
2022/01/15 08:11:17;;;;;;;19.95;3.92;;;;;;;-2.32;100.00;99702.03;4351695;32;20036;-76
2022/01/15 08:13:44;;;;;;;17.25;3.78;;;;;;;-2.52;100.00;99661.78;4370874;32;20040;-72
2022/01/15 08:16:10;;;;;;;33.25;5.22;;;;;;;-2.33;100.00;99703.87;4371508;32;20392;-72
2022/01/15 08:18:38;;;;;;;45.88;11.40;;;;;;;-2.54;100.00;99669.03;4370832;32;20451;-73
2022/01/15 08:21:06;;;;;;;30.35;5.95;;;;;;;-2.48;100.00;99666.59;4356144;32;20171;-73
2022/01/15 08:23:33;;;;;;;36.08;5.85;;;;;;;-2.20;100.00;99704.31;4355198;32;20066;-75
2022/01/15 08:26:00;;;;;;;22.25;5.55;;;;;;;-2.39;100.00;99672.81;4355863;32;20400;-73
2022/01/15 08:28:26;;;;;;;44.75;10.40;;;;;;;-2.39;100.00;99672.81;4364906;32;20062;-73
2022/01/15 08:30:53;;;;;;;22.08;5.75;;;;;;;-2.16;100.00;99701.38;4356318;32;20043;-73
2022/01/15 08:33:20;;;;;;;38.65;6.68;;;;;;;-2.14;100.00;99708.12;4356517;32;20429;-73
2022/01/15 08:35:47;;;;;;;22.52;5.85;;;;;;;-2.08;100.00;99706.72;4352560;32;20065;-74
2022/01/15 08:38:13;;;;;;;16.45;4.87;;;;;;;-2.33;100.00;99672.22;4369052;32;20504;-73
2022/01/15 08:40:40;;;;;;;20.75;4.68;;;;;;;-2.33;100.00;99688.03;4369282;32;20065;-74
2022/01/15 08:43:07;;;;;;;22.33;4.75;;;;;;;-2.06;100.00;99715.31;4369613;32;20069;-73
2022/01/15 08:45:35;;;;;;;24.45;5.62;;;;;;;-2.25;100.00;99664.38;4368582;32;20147;-73
2022/01/15 08:48:02;;;;;;;22.45;5.95;;;;;;;-1.97;100.00;99709.13;4361275;32;20377;-74
2022/01/15 08:50:28;;;;;;;25.67;5.37;;;;;;;-1.87;100.00;99707.25;4353179;32;20079;-74
2022/01/15 08:52:55;;;;;;;16.85;3.53;;;;;;;-1.89;100.00;99706.56;4350233;32;20058;-74
2022/01/15 08:55:28;;;;;;;25.12;5.32;;;;;;;-1.78;100.00;99712.59;4357305;32;20417;-74
2022/01/15 08:57:55;;;;;;;11.73;4.12;;;;;;;-1.68;100.00;99718.59;4353889;32;20031;-79
2022/01/15 09:00:24;;;;;;;20.23;4.75;;;;;;;-2.06;100.00;99673.09;4369775;32;20341;-74
2022/01/15 09:02:51;;;;;;;24.12;6.65;;;;;;;-1.74;100.00;99719.22;4338620;32;20061;-74
2022/01/15 09:05:17;;;;;;;21.35;4.40;;;;;;;-2.05;100.00;99666.84;4357584;32;20441;-74
2022/01/15 09:07:45;;;;;;;18.77;4.00;;;;;;;-1.72;100.00;99711.97;4369642;32;20039;-74
2022/01/15 09:10:11;;;;;;;18.10;4.22;;;;;;;-2.08;100.00;99659.22;4355462;32;20032;-73
2022/01/15 09:12:38;;;;;;;16.83;4.20;;;;;;;-1.87;100.00;99691.41;4356694;32;20089;-74
2022/01/15 09:15:05;;;;;;;21.42;5.10;;;;;;;-1.89;100.00;99680.16;4368103;32;20414;-73
2022/01/15 09:17:32;;;;;;;11.07;3.97;;;;;;;-1.74;100.00;99687.53;4366413;32;20357;-73
2022/01/15 09:19:59;;;;;;;36.10;4.85;;;;;;;-1.54;100.00;99719.87;4353061;32;20101;-74
2022/01/15 09:22:25;;;;;;;26.40;5.15;;;;;;;-1.59;100.00;99701.84;4359181;32;20083;-72
2022/01/15 09:24:52;;;;;;;18.67;4.47;;;;;;;-1.52;100.00;99708.12;4370348;32;20361;-74
2022/01/15 09:30:12;;;;;;;21.25;4.65;;;;;;;-1.39;100.00;99741.25;4367813;32;20085;-73
2022/01/15 09:32:40;;;;;;;21.67;6.00;;;;;;;-1.60;100.00;99700.16;4354652;32;20454;-76
2022/01/15 09:35:08;;;;;;;18.17;3.87;;;;;;;-1.60;100.00;99692.25;4361557;32;20043;-79
2022/01/15 09:37:35;;;;;;;14.57;4.28;;;;;;;-1.32;100.00;99718.53;4354683;32;20039;-74
2022/01/15 09:40:03;;;;;;;23.48;5.00;;;;;;;-1.53;100.00;99690.66;4366471;32;20081;-74
2022/01/15 09:42:30;;;;;;;23.58;5.43;;;;;;;-1.25;100.00;99714.25;4369349;32;20081;-74
2022/01/15 09:44:57;;;;;;;13.38;4.68;;;;;;;-1.36;100.00;99674.91;4365125;32;20073;-73
2022/01/15 09:47:24;;;;;;;25.20;4.97;;;;;;;-1.10;100.00;99741.78;4356762;32;20035;-77
2022/01/15 09:49:53;;;;;;;17.12;5.53;;;;;;;-1.47;100.00;99687.41;4357948;32;20035;-74
2022/01/15 09:52:19;;;;;;;18.42;6.15;;;;;;;-1.10;100.00;99733.03;4368858;32;20073;-74
2022/01/15 09:54:46;;;;;;;22.60;5.53;;;;;;;-1.24;100.00;99689.50;4346491;32;20039;-73
2022/01/15 09:57:13;;;;;;;27.37;5.30;;;;;;;-0.92;100.00;99730.31;4341065;32;20082;-73
2022/01/15 09:59:39;;;;;;;20.27;5.20;;;;;;;-0.85;100.00;99720.72;4337375;33;20074;-77
2022/01/15 10:02:06;;;;;;;22.35;4.95;;;;;;;-0.75;100.00;99724.09;4339781;32;20848;-74
2022/01/15 10:04:35;;;;;;;25.73;5.53;;;;;;;-0.89;100.00;99700.91;4357834;32;20077;-73
2022/01/15 10:07:11;;;;;;;16.25;5.28;;;;;;;-0.75;100.00;99710.87;4356304;32;20032;-74
2022/01/15 10:09:39;;;;;;;18.40;4.87;;;;;;;-0.84;100.00;99719.75;4343951;32;20426;-79
2022/01/15 10:12:06;;;;;;;14.13;3.78;;;;;;;-1.16;100.00;99665.75;4357256;32;20032;-75
2022/01/15 10:14:37;;;;;;;20.80;4.62;;;;;;;-0.82;100.00;99715.12;4366104;32;20064;-74
2022/01/15 10:17:28;;;;;;;23.33;4.70;;;;;;;-0.72;100.00;99715.00;4358833;32;20035;-74
2022/01/15 10:19:58;;;;;;;22.52;6.40;;;;;;;-0.67;100.00;99723.31;4371559;32;20076;-75
2022/01/15 10:22:27;;;;;;;34.80;5.68;;;;;;;-0.69;100.00;99719.16;4370498;32;20073;-74
2022/01/15 10:25:00;;;;;;;32.55;6.62;;;;;;;-0.59;100.00;99709.25;4367837;32;20074;-75
2022/01/15 10:27:35;;;;;;;29.27;5.00;;;;;;;-0.53;100.00;99703.31;4355641;32;20052;-76
2022/01/15 10:30:07;;;;;;;19.20;5.18;;;;;;;-0.63;100.00;99686.78;4367784;32;20047;-76
2022/01/15 10:32:52;;;;;;;20.73;3.97;;;;;;;-0.42;100.00;99718.87;4353356;32;20077;-76
2022/01/15 10:35:18;;;;;;;19.35;3.78;;;;;;;-0.74;100.00;99670.19;4352732;32;20665;-73
2022/01/15 10:37:50;;;;;;;21.73;4.57;;;;;;;-0.45;100.00;99716.56;4334276;32;20069;-74
2022/01/15 10:40:20;;;;;;;16.73;4.53;;;;;;;-0.35;100.00;99694.44;4353373;32;20086;-73
2022/01/15 10:42:58;;;;;;;16.62;5.03;;;;;;;-0.32;100.00;99704.69;4338388;33;20348;-75
2022/01/15 10:45:29;;;;;;;15.73;4.07;;;;;;;-0.39;100.00;99700.03;4362260;32;20069;-73
2022/01/15 10:48:01;;;;;;;9.00;3.57;;;;;;;-0.61;100.00;99674.22;4363100;32;20080;-73
2022/01/15 10:50:36;;;;;;;15.38;3.83;;;;;;;-0.30;100.00;99718.59;4344271;33;20264;-74
2022/01/15 10:53:11;;;;;;;20.17;4.97;;;;;;;-0.26;100.00;99719.94;4351195;32;20057;-73
2022/01/15 10:55:40;;;;;;;27.20;4.35;;;;;;;-0.22;100.00;99726.56;4371169;32;20069;-74
2022/01/15 10:58:11;;;;;;;24.42;5.05;;;;;;;-0.52;100.00;99661.84;4366232;32;20062;-74
2022/01/15 11:00:41;;;;;;;18.65;4.57;;;;;;;-0.58;100.00;99658.84;4371680;32;20040;-78
2022/01/15 11:03:11;;;;;;;16.05;4.20;;;;;;;-0.15;100.00;99711.69;4359334;32;20085;-74
2022/01/15 11:05:38;;;;;;;17.50;4.22;;;;;;;-0.34;100.00;99677.56;4353531;32;20057;-73
2022/01/15 11:08:27;;;;;;;18.10;5.20;;;;;;;-0.33;100.00;99677.41;4357001;32;20043;-73
2022/01/15 11:11:04;;;;;;;19.10;5.03;;;;;;;-0.05;100.00;99712.37;4358513;32;21178;-74
2022/01/15 11:13:37;;;;;;;15.07;4.05;;;;;;;-0.09;100.00;99703.09;4370128;32;20069;-78
2022/01/15 11:16:15;;;;;;;22.58;5.15;;;;;;;0.05;100.00;99717.50;4370469;32;20349;-78
2022/01/15 11:18:44;;;;;;;17.65;4.87;;;;;;;0.05;100.00;99711.34;4356825;32;20043;-73
2022/01/15 11:21:13;;;;;;;14.70;4.75;;;;;;;-0.09;100.00;99673.97;4356774;32;20044;-74
2022/01/15 11:23:42;;;;;;;12.95;4.30;;;;;;;0.36;100.00;99715.00;4368766;32;20086;-75
2022/01/15 11:26:20;;;;;;;24.55;4.80;;;;;;;0.69;100.00;99709.66;4363079;32;20376;-74
2022/01/15 11:28:47;;;;;;;12.70;4.35;;;;;;;1.28;100.00;99724.41;4365446;32;20059;-75
2022/01/15 11:31:21;;;;;;;23.05;4.97;;;;;;;1.57;100.00;99688.44;4359575;32;20087;-75
2022/01/15 11:33:50;;;;;;;18.42;4.97;;;;;;;1.62;100.00;99700.16;4359639;32;20070;-74
2022/01/15 11:36:36;;;;;;;21.05;4.12;;;;;;;1.53;100.00;99690.63;4360892;32;20057;-74
2022/01/15 11:39:08;;;;;;;16.17;5.57;;;;;;;1.91;100.00;99716.44;4365364;32;20048;-74
2022/01/15 11:41:40;;;;;;;15.93;5.00;;;;;;;1.81;100.00;99677.66;4355056;32;20390;-78
2022/01/15 11:44:28;;;;;;;18.08;4.85;;;;;;;1.97;100.00;99702.44;4356933;32;20056;-74
2022/01/15 11:46:57;;;;;;;24.25;7.95;;;;;;;1.80;100.00;99689.28;4365231;32;20044;-75
2022/01/15 11:49:24;;;;;;;16.02;5.53;;;;;;;1.97;100.00;99703.25;4367668;32;20035;-74
2022/01/15 11:51:51;;;;;;;26.15;6.30;;;;;;;1.93;100.00;99711.75;4371603;32;20086;-74
2022/01/15 11:54:19;;;;;;;24.52;5.78;;;;;;;1.92;100.00;99712.78;4365404;32;20059;-74